Sant Feliu de Llobregat, Spain
Current Conditions -  °F | °C
As of 7:00 PM on Wednesday 28 Jan 2015 (Local Time) from LEBL Reporting Station
Broken Clouds Broken Clouds  
Wind Chill: 50°   Ceiling: 5500
Heat Index: 50°   Visibility: 6mi
Dew Point: 41°   Wind: 2mph
Humidity: 71%   Direction: NA
Pressure: 30.12"   Gusts: NA
Location:  41.38°N, 2.05°E
Report Text: LEBL 281800Z VRB02KT 9999 FEW025 BKN055 10/05 Q1020 NOSIG
Loading
Personal Weather Stations






























Interactive Weather Map New forecast layout! Learn more

10-Day Weather Forecast

Advertisements
Track Severe Weather on mobile